Time;durP1;ratioP1;P1;durP2;ratioP2;P2;SDS_P1;SDS_P2;PMS_P1;PMS_P2;Temp;Humidity;BMP_temperature;BMP_pressure;BME280_temperature;BME280_humidity;BME280_pressure;Samples;Min_cycle;Max_cycle;Signal;HPM_P1;HPM_P2
2022/04/01 00:00:54;;;;;;;49.85;9.18;;;;;;;8.93;100.00;149899.28;1820393;78;21067;-61
2022/04/01 00:03:21;;;;;;;47.80;9.98;;;;;;;8.94;100.00;149903.19;1821169;78;20984;-62
2022/04/01 00:05:48;;;;;;;39.42;10.32;;;;;;;8.94;100.00;149901.87;1820186;78;21066;-61
2022/04/01 00:08:15;;;;;;;38.02;9.43;;;;;;;8.94;100.00;149901.87;1820926;78;21453;-62
2022/04/01 00:10:44;;;;;;;36.20;10.18;;;;;;;8.94;100.00;149901.87;1820340;78;20963;-62
2022/04/01 00:13:13;;;;;;;40.10;8.73;;;;;;;8.94;100.00;149901.87;1821008;77;21106;-62
2022/04/01 00:15:40;;;;;;;33.63;8.50;;;;;;;8.94;100.00;149901.87;1820891;78;20967;-61
2022/04/01 00:18:07;;;;;;;46.50;10.00;;;;;;;8.92;100.00;149896.69;1820686;77;20967;-61
2022/04/01 00:20:35;;;;;;;40.52;10.08;;;;;;;8.91;100.00;149894.09;1820847;78;21632;-60
2022/04/01 00:23:02;;;;;;;39.60;10.00;;;;;;;8.89;100.00;149891.50;1820889;78;21204;-60
2022/04/01 00:25:30;;;;;;;41.45;9.53;;;;;;;8.89;100.00;149891.50;1820655;78;20972;-61
2022/04/01 00:27:58;;;;;;;39.67;10.25;;;;;;;8.89;100.00;149890.23;1820507;78;20975;-60
2022/04/01 00:30:25;;;;;;;39.23;9.15;;;;;;;8.87;100.00;149886.33;1820805;78;20849;-61
2022/04/01 00:32:52;;;;;;;45.83;9.30;;;;;;;8.86;100.00;149883.73;1820198;78;21019;-61
2022/04/01 00:35:19;;;;;;;37.53;9.80;;;;;;;8.86;100.00;149883.73;1820505;78;21214;-61
2022/04/01 00:37:47;;;;;;;40.20;10.03;;;;;;;8.85;100.00;149881.16;1820167;77;21134;-60
2022/04/01 00:40:14;;;;;;;38.20;9.98;;;;;;;8.84;100.00;149877.23;1820454;78;21055;-60
2022/04/01 00:42:44;;;;;;;47.00;9.78;;;;;;;8.85;100.00;149881.16;1820349;78;20948;-60
2022/04/01 00:45:11;;;;;;;34.67;9.20;;;;;;;8.86;100.00;149883.73;1820845;78;21873;-61
2022/04/01 00:47:39;;;;;;;34.70;8.53;;;;;;;8.87;100.00;149886.33;1820208;78;21376;-60
2022/04/01 00:50:08;;;;;;;43.65;9.60;;;;;;;8.88;100.00;149888.92;1819537;78;21118;-60
2022/04/01 00:52:37;;;;;;;37.95;11.15;;;;;;;8.91;100.00;149894.09;1819376;78;32649;-61
2022/04/01 00:55:08;;;;;;;43.08;9.70;;;;;;;8.93;100.00;149899.28;1820274;78;21610;-60
2022/04/01 00:57:36;;;;;;;40.23;10.48;;;;;;;8.97;100.00;149909.69;1820276;78;21020;-62
2022/04/01 01:00:06;;;;;;;40.08;10.55;;;;;;;8.97;100.00;149909.69;1819723;77;21309;-62
2022/04/01 01:02:34;;;;;;;56.83;10.70;;;;;;;8.98;100.00;149912.28;1789697;78;21031;-60
2022/04/01 01:05:04;;;;;;;45.78;10.60;;;;;;;8.98;100.00;149913.55;1819400;78;20959;-60
2022/04/01 01:07:33;;;;;;;44.00;10.13;;;;;;;8.98;100.00;149913.55;1820031;78;20979;-61
2022/04/01 01:10:01;;;;;;;35.03;9.55;;;;;;;9.01;100.00;149920.05;1820560;78;21485;-60
2022/04/01 01:12:29;;;;;;;44.48;9.28;;;;;;;9.01;100.00;149920.05;1820612;78;21070;-62
2022/04/01 01:15:07;;;;;;;36.95;9.40;;;;;;;9.03;100.00;149926.50;1820284;78;21111;-60
2022/04/01 01:17:37;;;;;;;45.45;10.68;;;;;;;9.06;100.00;149933.00;1817728;78;21311;-61
2022/04/01 01:20:12;;;;;;;38.05;9.55;;;;;;;9.09;100.00;149939.50;1820633;78;20967;-61
2022/04/01 01:22:36;;;;;;;49.25;9.88;;;;;;;9.11;100.00;149944.69;1820377;77;21019;-61
2022/04/01 01:25:05;;;;;;;42.53;10.15;;;;;;;9.13;100.00;149951.12;1820701;78;21103;-61
2022/04/01 01:27:35;;;;;;;28.73;9.13;;;;;;;9.13;100.00;149951.12;1791408;78;20912;-61
2022/04/01 01:30:04;;;;;;;44.70;8.98;;;;;;;9.14;100.00;149953.72;1820587;78;21008;-60
2022/04/01 01:32:33;;;;;;;43.35;9.23;;;;;;;9.14;100.00;149953.72;1820849;78;20825;-60
2022/04/01 01:35:00;;;;;;;39.45;9.35;;;;;;;9.14;100.00;149953.72;1821081;78;21051;-60
2022/04/01 01:37:28;;;;;;;44.38;10.55;;;;;;;9.14;100.00;149953.72;1820482;78;21087;-61
2022/04/01 01:39:55;;;;;;;41.18;9.70;;;;;;;9.14;100.00;149953.72;1820576;78;20982;-60
2022/04/01 01:42:22;;;;;;;42.50;10.18;;;;;;;9.13;100.00;149951.12;1821036;78;20976;-60
2022/04/01 01:44:50;;;;;;;33.45;9.43;;;;;;;9.11;100.00;149945.95;1814624;78;21055;-60
2022/04/01 01:47:17;;;;;;;36.28;10.58;;;;;;;9.08;100.00;149938.19;1785118;79;20921;-60
2022/04/01 01:55:19;;;;;;;43.98;9.03;;;;;;;9.00;100.00;149917.47;1798698;78;20991;-61
2022/04/01 01:57:47;;;;;;;47.33;9.68;;;;;;;8.96;100.00;149907.09;1820095;77;20940;-61
2022/04/01 02:00:20;;;;;;;39.92;9.00;;;;;;;8.93;100.00;149899.28;1820366;78;21082;-61
2022/04/01 02:02:45;;;;;;;38.85;9.53;;;;;;;8.91;100.00;149894.09;1820420;78;21966;-60
2022/04/01 02:05:12;;;;;;;35.33;9.48;;;;;;;8.87;100.00;149886.33;1819792;78;21114;-62
2022/04/01 02:07:40;;;;;;;39.40;10.00;;;;;;;8.85;100.00;149881.16;1819653;78;21020;-61
2022/04/01 02:10:08;;;;;;;34.10;8.05;;;;;;;8.83;100.00;149874.66;1820166;78;22226;-62
2022/04/01 02:12:35;;;;;;;45.23;9.30;;;;;;;8.80;100.00;149868.20;1820498;78;20928;-61
2022/04/01 02:15:06;;;;;;;40.83;9.50;;;;;;;8.77;100.00;149860.44;1820458;78;20916;-61
2022/04/01 02:17:34;;;;;;;47.70;9.70;;;;;;;8.75;100.00;149855.25;1820642;78;20976;-62
2022/04/01 02:20:05;;;;;;;31.42;8.63;;;;;;;8.76;100.00;149857.84;1820043;78;20946;-59
2022/04/01 02:22:34;;;;;;;39.20;8.85;;;;;;;8.76;100.00;149857.84;1820474;78;20865;-60
2022/04/01 02:25:04;;;;;;;39.75;10.15;;;;;;;8.75;100.00;149855.25;1790598;78;21406;-60
2022/04/01 02:27:31;;;;;;;33.80;8.98;;;;;;;8.75;100.00;149855.25;1790471;78;21778;-61
2022/04/01 02:29:59;;;;;;;41.02;10.03;;;;;;;8.75;100.00;149855.25;1790270;78;21027;-59
2022/04/01 02:32:45;;;;;;;41.77;9.80;;;;;;;8.75;100.00;149855.25;1819881;78;21098;-61
2022/04/01 02:35:18;;;;;;;44.10;9.43;;;;;;;8.74;100.00;149853.94;1818574;78;21698;-59
2022/04/01 02:37:47;;;;;;;41.28;9.05;;;;;;;8.72;100.00;149847.44;1820283;78;21019;-60
2022/04/01 02:40:15;;;;;;;39.98;9.30;;;;;;;8.70;100.00;149843.58;1820068;78;21512;-60
2022/04/01 02:42:42;;;;;;;32.90;8.80;;;;;;;8.68;100.00;149837.08;1820342;78;20960;-60
2022/04/01 02:45:11;;;;;;;41.08;9.40;;;;;;;8.67;100.00;149834.48;1819031;78;21172;-61
2022/04/01 02:47:38;;;;;;;39.20;9.63;;;;;;;8.66;100.00;149831.91;1783845;80;20996;-60
2022/04/01 02:50:08;;;;;;;40.95;10.32;;;;;;;8.66;100.00;149831.91;1784160;80;20936;-61
2022/04/01 02:52:37;;;;;;;44.93;9.43;;;;;;;8.64;100.00;149826.72;1784785;79;21364;-62
2022/04/01 02:55:07;;;;;;;38.23;8.93;;;;;;;8.65;100.00;149829.31;1784595;79;21024;-59
2022/04/01 02:57:35;;;;;;;39.13;9.10;;;;;;;8.66;100.00;149831.91;1789010;79;20962;-59
2022/04/01 03:00:09;;;;;;;43.08;9.35;;;;;;;8.67;100.00;149835.81;1779253;79;21988;-60
2022/04/01 03:02:33;;;;;;;37.63;8.90;;;;;;;8.69;100.00;149839.67;1779908;79;21040;-60
2022/04/01 03:05:03;;;;;;;44.18;8.93;;;;;;;8.70;100.00;149842.25;1782939;79;21125;-59
2022/04/01 03:07:30;;;;;;;35.17;8.05;;;;;;;8.72;100.00;149848.75;1779404;79;21005;-59
2022/04/01 03:09:59;;;;;;;32.03;8.48;;;;;;;8.72;100.00;149847.44;1778942;79;21064;-59
2022/04/01 03:12:29;;;;;;;40.12;8.18;;;;;;;8.72;100.00;149847.44;1779686;79;20962;-60
2022/04/01 03:15:03;;;;;;;42.25;9.18;;;;;;;8.70;100.00;149842.25;1775770;79;21095;-61
2022/04/01 03:17:34;;;;;;;36.83;8.28;;;;;;;8.70;100.00;149842.25;1779802;80;21189;-60
2022/04/01 03:20:11;;;;;;;35.63;8.73;;;;;;;8.70;100.00;149842.25;1779342;79;21060;-60
2022/04/01 03:22:34;;;;;;;37.95;8.73;;;;;;;8.69;100.00;149840.98;1779846;79;21332;-60
2022/04/01 03:25:01;;;;;;;36.45;8.80;;;;;;;8.68;100.00;149838.41;1779144;80;21049;-60
2022/04/01 03:27:30;;;;;;;34.20;7.45;;;;;;;8.69;100.00;149839.67;1758008;80;21040;-60
2022/04/01 03:29:57;;;;;;;46.33;7.92;;;;;;;8.69;100.00;149839.67;1779009;80;21115;-60
2022/04/01 03:32:26;;;;;;;39.80;9.45;;;;;;;8.68;100.00;149837.08;1779548;79;20882;-60
2022/04/01 03:34:53;;;;;;;42.70;9.30;;;;;;;8.67;100.00;149834.48;1782767;79;21115;-59
2022/04/01 03:37:21;;;;;;;28.32;7.85;;;;;;;8.64;100.00;149828.05;1778484;80;21052;-60
2022/04/01 03:39:48;;;;;;;41.30;8.48;;;;;;;8.63;100.00;149824.13;1782447;79;21052;-59
2022/04/01 03:42:16;;;;;;;32.70;8.80;;;;;;;8.61;100.00;149820.22;1779875;80;21199;-60
2022/04/01 03:44:44;;;;;;;45.98;8.33;;;;;;;8.58;100.00;149813.78;1778748;80;20980;-61
2022/04/01 03:47:17;;;;;;;45.48;8.30;;;;;;;8.58;100.00;149813.78;1771779;79;21060;-62
2022/04/01 03:49:52;;;;;;;41.30;8.70;;;;;;;8.57;100.00;149811.19;1757226;80;21072;-61
2022/04/01 03:52:19;;;;;;;47.95;8.65;;;;;;;8.59;100.00;149816.36;1769304;78;21067;-61
2022/04/01 03:54:47;;;;;;;40.12;8.33;;;;;;;8.63;100.00;149824.13;1743564;80;21449;-62
2022/04/01 03:57:38;;;;;;;40.12;7.90;;;;;;;8.65;100.00;149829.31;1770825;79;21005;-61
2022/04/01 04:00:24;;;;;;;38.17;7.62;;;;;;;8.68;100.00;149837.08;1771034;81;20949;-59
2022/04/01 04:02:52;;;;;;;47.78;9.03;;;;;;;8.71;100.00;149844.84;1770739;81;21310;-60
2022/04/01 04:05:22;;;;;;;53.10;8.85;;;;;;;8.74;100.00;149853.94;1770572;80;21077;-60
2022/04/01 04:07:51;;;;;;;35.50;8.15;;;;;;;8.78;100.00;149863.03;1770102;81;21127;-63
2022/04/01 04:10:21;;;;;;;49.20;7.85;;;;;;;8.82;100.00;149873.38;1770270;80;21080;-60
2022/04/01 04:12:57;;;;;;;40.50;8.20;;;;;;;8.85;100.00;149879.88;1769594;80;21100;-60
2022/04/01 04:15:29;;;;;;;38.60;8.73;;;;;;;8.89;100.00;149891.50;1714473;81;21040;-59
2022/04/01 04:17:59;;;;;;;39.75;8.43;;;;;;;8.96;100.00;149908.38;1770463;81;21068;-61
2022/04/01 04:20:41;;;;;;;33.70;7.62;;;;;;;9.02;100.00;149922.64;1771023;81;23043;-59
2022/04/01 04:23:19;;;;;;;32.73;7.28;;;;;;;9.10;99.78;149942.09;1770676;81;20965;-60
2022/04/01 04:25:54;;;;;;;36.53;8.25;;;;;;;9.21;99.26;149969.31;1757370;81;21040;-60
2022/04/01 04:28:25;;;;;;;39.35;8.73;;;;;;;9.30;98.72;149992.63;1771165;80;21072;-60
2022/04/01 04:30:55;;;;;;;39.78;8.65;;;;;;;9.39;98.11;150014.67;1771100;80;21000;-60
2022/04/01 04:33:26;;;;;;;48.30;7.10;;;;;;;9.50;97.60;150041.91;1769826;80;21048;-60
2022/04/01 04:35:54;;;;;;;32.50;7.75;;;;;;;9.56;96.53;150058.77;1771105;81;21068;-60
2022/04/01 04:38:23;;;;;;;40.65;8.33;;;;;;;9.62;95.95;150073.05;1771119;81;21547;-60
2022/04/01 04:40:52;;;;;;;25.75;6.67;;;;;;;9.65;95.53;150080.81;1771031;81;21101;-61
2022/04/01 04:43:21;;;;;;;40.50;7.75;;;;;;;9.69;95.01;150091.19;1770949;81;21312;-60
2022/04/01 04:45:52;;;;;;;45.48;8.63;;;;;;;9.75;94.62;150106.73;1770776;79;20969;-61
2022/04/01 04:48:19;;;;;;;45.45;7.60;;;;;;;9.80;94.13;150118.42;1770290;81;21052;-60
2022/04/01 04:50:47;;;;;;;37.08;7.75;;;;;;;9.84;93.69;150127.52;1770161;81;21451;-60
2022/04/01 04:53:14;;;;;;;45.60;8.43;;;;;;;9.87;93.36;150135.28;1770312;81;21175;-60
2022/04/01 04:55:43;;;;;;;40.73;8.60;;;;;;;9.91;93.09;150145.66;1770479;81;21061;-60
2022/04/01 04:58:10;;;;;;;42.50;8.95;;;;;;;9.96;92.74;150158.61;1770301;80;20965;-60
2022/04/01 05:00:39;;;;;;;42.15;6.95;;;;;;;10.02;92.58;150172.89;1770373;80;21030;-60
2022/04/01 05:03:40;;;;;;;46.95;7.78;;;;;;;10.08;92.15;150187.17;1769433;80;21498;-60
2022/04/01 05:06:08;;;;;;;35.55;8.13;;;;;;;10.13;91.79;150201.41;1770500;79;21100;-61
2022/04/01 05:09:28;;;;;;;42.73;8.58;;;;;;;10.17;91.35;150211.83;1770147;81;21676;-61
2022/04/01 05:12:20;;;;;;;36.65;8.23;;;;;;;10.21;90.92;150220.88;1748222;80;21190;-58
2022/04/01 05:15:04;;;;;;;39.23;7.37;;;;;;;10.26;90.49;150233.84;1770255;80;21016;-59
2022/04/01 05:18:08;;;;;;;33.55;7.40;;;;;;;10.37;90.14;150259.81;1770111;80;20990;-60
2022/04/01 05:20:39;;;;;;;37.65;7.78;;;;;;;10.53;89.84;150300.08;1737925;80;21033;-61
2022/04/01 05:23:15;;;;;;;40.05;7.37;;;;;;;10.74;88.99;150354.58;1771071;81;21008;-59
2022/04/01 05:25:48;;;;;;;35.90;7.90;;;;;;;10.93;88.17;150400.00;1771013;81;21813;-60
2022/04/01 05:28:27;;;;;;;44.10;7.45;;;;;;;11.11;87.22;150446.73;1766678;79;21056;-60
2022/04/01 05:31:10;;;;;;;41.60;7.95;;;;;;;11.30;86.58;150494.80;1770800;81;21061;-60
2022/04/01 05:34:09;;;;;;;44.58;8.30;;;;;;;11.50;85.82;150542.81;1771318;79;21443;-59
2022/04/01 05:36:38;;;;;;;36.90;7.60;;;;;;;11.69;84.72;150592.17;1771650;81;21451;-62
2022/04/01 05:39:07;;;;;;;42.27;7.53;;;;;;;11.92;83.75;150649.33;1770299;80;21509;-60
2022/04/01 05:41:34;;;;;;;44.40;7.83;;;;;;;12.12;83.05;150698.73;1771061;81;20985;-60
2022/04/01 05:44:03;;;;;;;38.30;7.28;;;;;;;12.32;82.43;150749.39;1771002;79;21547;-61
2022/04/01 05:46:33;;;;;;;41.75;8.38;;;;;;;12.53;81.29;150802.69;1770312;80;21827;-60
2022/04/01 05:49:02;;;;;;;35.38;7.47;;;;;;;12.73;80.33;150852.08;1769985;81;21089;-60
2022/04/01 05:51:32;;;;;;;42.58;8.05;;;;;;;12.91;79.16;150897.56;1771677;81;21466;-59
2022/04/01 05:54:01;;;;;;;37.15;6.95;;;;;;;13.12;78.07;150950.84;1771614;81;21534;-62
2022/04/01 05:56:31;;;;;;;43.60;8.25;;;;;;;13.26;76.66;150984.66;1771410;81;21025;-62
2022/04/01 05:58:58;;;;;;;40.38;7.17;;;;;;;13.39;75.99;151018.48;1770608;80;21103;-60
2022/04/01 06:02:01;;;;;;;35.65;7.90;;;;;;;13.55;75.09;151057.50;1771240;81;21732;-61
2022/04/01 06:05:05;;;;;;;37.63;7.15;;;;;;;13.67;74.11;151088.75;1771334;79;21244;-61
2022/04/01 06:08:06;;;;;;;29.75;7.20;;;;;;;13.82;73.17;151125.17;1771337;81;20977;-61
2022/04/01 06:10:54;;;;;;;43.28;8.85;;;;;;;13.99;72.31;151168.09;1706139;80;21115;-61
2022/04/01 06:13:47;;;;;;;38.78;7.87;;;;;;;14.14;71.20;151205.81;1745491;80;21076;-61
2022/04/01 06:16:55;;;;;;;36.23;8.13;;;;;;;14.28;70.84;151242.25;1685988;84;21075;-61
2022/04/01 06:19:31;;;;;;;42.38;7.60;;;;;;;14.55;70.14;151309.91;1723913;82;21221;-61
2022/04/01 06:22:09;;;;;;;36.30;7.75;;;;;;;14.95;69.21;151408.88;1717729;82;21004;-60
2022/04/01 06:25:12;;;;;;;38.48;8.53;;;;;;;15.20;67.57;151471.36;1736230;82;21060;-61
2022/04/01 06:27:48;;;;;;;46.53;7.77;;;;;;;15.34;66.63;151507.78;1707367;82;21032;-60
2022/04/01 06:30:21;;;;;;;34.98;7.90;;;;;;;15.44;65.82;151533.84;1703400;82;21116;-60
2022/04/01 06:33:13;;;;;;;31.82;8.23;;;;;;;15.49;64.63;151544.25;1724643;83;21049;-60
2022/04/01 06:35:59;;;;;;;33.83;8.10;;;;;;;15.47;64.69;151541.66;1734249;82;21501;-60
2022/04/01 06:38:42;;;;;;;31.20;7.25;;;;;;;15.60;64.45;151572.94;1736132;82;21099;-60
2022/04/01 06:41:15;;;;;;;42.80;8.98;;;;;;;15.80;63.97;151622.38;1736455;82;21131;-60
2022/04/01 06:43:48;;;;;;;33.28;7.33;;;;;;;16.09;62.75;151695.41;1735841;82;20937;-60
2022/04/01 06:46:23;;;;;;;43.23;8.25;;;;;;;16.24;60.70;151734.45;1733370;82;21143;-60
2022/04/01 06:48:52;;;;;;;37.35;7.25;;;;;;;16.13;60.10;151705.81;1736229;81;21031;-60
2022/04/01 06:51:39;;;;;;;39.30;7.45;;;;;;;15.92;60.01;151653.70;1720569;83;21067;-60
2022/04/01 06:54:25;;;;;;;41.90;8.23;;;;;;;15.61;60.31;151576.81;1736194;81;21084;-60
2022/04/01 06:57:11;;;;;;;35.30;7.17;;;;;;;15.30;60.96;151497.38;1736241;82;21060;-60
2022/04/01 06:59:57;;;;;;;44.65;8.15;;;;;;;15.08;61.89;151442.69;1733358;81;22483;-59
2022/04/01 07:02:24;;;;;;;36.63;6.75;;;;;;;14.98;62.48;151416.69;1736590;82;21041;-60
2022/04/01 07:04:52;;;;;;;42.67;7.53;;;;;;;14.90;62.52;151398.42;1736603;82;21096;-60
2022/04/01 07:07:19;;;;;;;29.52;6.53;;;;;;;14.78;62.82;151365.89;1747588;80;21569;-60
2022/04/01 07:09:46;;;;;;;32.45;7.08;;;;;;;14.63;63.14;151328.11;1747377;80;20993;-60
2022/04/01 07:12:14;;;;;;;37.40;7.28;;;;;;;14.53;63.55;151303.38;1747207;81;21820;-61
2022/04/01 07:14:41;;;;;;;44.05;7.35;;;;;;;14.48;63.99;151291.70;1747174;82;21071;-61
2022/04/01 07:17:08;;;;;;;36.38;6.65;;;;;;;14.50;63.82;151296.91;1747344;80;21087;-61
2022/04/01 07:19:36;;;;;;;38.53;7.58;;;;;;;14.50;64.07;151296.91;1788600;78;21043;-61
2022/04/01 07:22:10;;;;;;;42.95;7.65;;;;;;;14.55;64.05;151309.91;1779646;79;21515;-61
2022/04/01 07:24:34;;;;;;;45.25;7.30;;;;;;;14.59;63.92;151320.31;1779931;78;22145;-61
2022/04/01 07:27:02;;;;;;;31.87;7.22;;;;;;;14.67;63.87;151338.50;1792743;78;21091;-61
2022/04/01 07:29:29;;;;;;;37.75;7.20;;;;;;;14.80;63.87;151371.09;1797766;79;21043;-61
2022/04/01 07:34:45;;;;;;;46.88;6.95;;;;;;;15.03;63.25;151431.02;1777980;79;21085;-61
2022/04/01 07:37:12;;;;;;;41.15;7.55;;;;;;;15.20;62.84;151471.36;1772872;80;21784;-61
2022/04/01 07:39:41;;;;;;;36.30;7.10;;;;;;;15.33;62.05;151506.50;1772586;79;20957;-61
2022/04/01 07:42:12;;;;;;;35.78;6.90;;;;;;;15.47;61.38;151540.33;1780388;79;22038;-62
2022/04/01 07:44:40;;;;;;;37.78;7.65;;;;;;;15.55;61.22;151559.88;1781889;79;20922;-61
2022/04/01 07:47:09;;;;;;;38.83;7.15;;;;;;;15.67;60.91;151591.14;1781771;78;21501;-62
2022/04/01 07:49:38;;;;;;;30.72;7.03;;;;;;;15.80;60.45;151622.38;1749697;80;21393;-61
2022/04/01 07:52:09;;;;;;;41.10;7.83;;;;;;;15.90;60.12;151648.50;1779175;80;21028;-60
2022/04/01 07:54:37;;;;;;;32.50;7.70;;;;;;;16.01;59.92;151677.13;1782030;79;20953;-62
2022/04/01 07:57:05;;;;;;;38.30;6.90;;;;;;;16.14;59.30;151708.42;1782228;80;21381;-62
2022/04/01 07:59:33;;;;;;;42.55;7.53;;;;;;;16.19;58.81;151721.44;1771818;79;20997;-62
2022/04/01 08:02:01;;;;;;;40.58;7.35;;;;;;;16.25;58.63;151737.11;1760289;79;21231;-61
2022/04/01 08:04:28;;;;;;;35.88;6.80;;;;;;;16.32;58.54;151755.33;1760179;79;21019;-61
2022/04/01 08:06:57;;;;;;;32.13;7.20;;;;;;;16.44;58.19;151785.30;1763575;81;21059;-62
2022/04/01 08:09:26;;;;;;;38.17;7.35;;;;;;;16.55;58.20;151812.66;1771124;79;21073;-61
2022/04/01 08:11:54;;;;;;;40.80;7.65;;;;;;;16.71;57.37;151851.77;1770944;81;21024;-61
2022/04/01 08:14:22;;;;;;;30.30;6.80;;;;;;;16.81;56.83;151876.53;1770863;79;21131;-61
2022/04/01 08:16:49;;;;;;;38.05;7.97;;;;;;;16.87;56.45;151893.44;1771081;81;20977;-61
2022/04/01 08:19:16;;;;;;;36.65;7.97;;;;;;;16.97;56.20;151916.94;1770842;81;21108;-61
2022/04/01 08:21:48;;;;;;;37.85;7.37;;;;;;;17.03;55.72;151932.61;1771250;81;21344;-60
2022/04/01 08:24:20;;;;;;;43.75;7.97;;;;;;;17.11;55.57;151953.45;1771492;79;21027;-61
2022/04/01 08:26:45;;;;;;;35.52;7.12;;;;;;;17.22;55.38;151979.55;1770731;79;22010;-60
2022/04/01 08:29:13;;;;;;;52.05;8.98;;;;;;;17.31;54.93;152003.00;1757767;81;21041;-60
2022/04/01 08:31:41;;;;;;;37.70;8.03;;;;;;;17.36;54.00;152016.06;1770888;81;21017;-62
2022/04/01 08:34:09;;;;;;;50.80;8.33;;;;;;;17.36;53.91;152014.75;1771333;79;20962;-60
2022/04/01 08:36:37;;;;;;;43.25;7.95;;;;;;;17.32;53.52;152005.59;1758521;81;20946;-62
2022/04/01 08:39:04;;;;;;;42.33;8.33;;;;;;;17.27;53.23;151993.91;1770803;81;21834;-60
2022/04/01 08:41:32;;;;;;;37.63;8.18;;;;;;;17.28;53.25;151996.50;1771110;81;21051;-62
2022/04/01 08:43:59;;;;;;;40.73;9.55;;;;;;;17.31;53.30;152003.00;1765289;80;21016;-61
2022/04/01 08:46:27;;;;;;;49.73;8.03;;;;;;;17.37;53.00;152018.67;1760412;80;21593;-60
2022/04/01 08:48:54;;;;;;;30.25;7.58;;;;;;;17.38;53.06;152021.28;1699823;81;20984;-59
2022/04/01 08:51:23;;;;;;;38.48;8.28;;;;;;;17.41;52.94;152029.09;1763262;81;21113;-61
2022/04/01 08:53:52;;;;;;;49.30;9.70;;;;;;;17.46;52.82;152042.12;1771281;79;20954;-62
2022/04/01 08:56:19;;;;;;;53.70;10.40;;;;;;;17.49;52.27;152047.33;1771188;81;22157;-61
2022/04/01 08:58:46;;;;;;;50.23;9.10;;;;;;;17.50;52.04;152049.94;1771247;80;20973;-60
2022/04/01 09:01:14;;;;;;;31.55;7.87;;;;;;;17.46;51.93;152040.80;1771294;81;21115;-59
2022/04/01 09:03:42;;;;;;;45.23;9.00;;;;;;;17.46;51.85;152042.12;1771295;81;22167;-61
2022/04/01 09:06:09;;;;;;;46.40;8.20;;;;;;;17.47;51.71;152044.72;1775891;79;20948;-62
2022/04/01 09:08:40;;;;;;;40.78;8.05;;;;;;;17.46;51.26;152042.12;1766199;80;20974;-62
2022/04/01 09:11:17;;;;;;;41.73;8.35;;;;;;;17.41;51.36;152027.77;1762178;81;21484;-62
2022/04/01 09:13:49;;;;;;;41.77;8.38;;;;;;;17.42;51.39;152031.70;1778111;79;20976;-62
2022/04/01 09:16:28;;;;;;;47.35;9.38;;;;;;;17.47;51.11;152043.45;1805492;78;22628;-60
2022/04/01 09:18:58;;;;;;;37.28;8.95;;;;;;;17.49;51.08;152047.33;1810007;79;20913;-62
2022/04/01 09:21:29;;;;;;;41.73;8.18;;;;;;;17.54;51.13;152060.36;1791723;78;21183;-62
2022/04/01 09:23:56;;;;;;;40.98;7.67;;;;;;;17.62;50.90;152081.25;1803633;79;20992;-63
2022/04/01 09:26:32;;;;;;;31.60;7.37;;;;;;;17.67;50.78;152094.28;1803066;79;21033;-62
2022/04/01 09:29:00;;;;;;;42.20;7.97;;;;;;;17.76;50.77;152117.73;1802246;79;21217;-62
2022/04/01 09:31:33;;;;;;;43.78;8.23;;;;;;;17.81;50.45;152128.22;1802199;79;20984;-62
2022/04/01 09:34:01;;;;;;;42.65;7.97;;;;;;;17.84;50.37;152137.31;1802265;79;21020;-61
2022/04/01 09:36:36;;;;;;;42.90;7.85;;;;;;;17.87;50.14;152145.13;1802500;79;21095;-62
2022/04/01 09:39:12;;;;;;;49.30;8.50;;;;;;;17.89;49.94;152149.06;1774450;79;21056;-62
2022/04/01 09:41:48;;;;;;;35.65;7.50;;;;;;;17.86;49.65;152141.25;1770978;81;21400;-61
2022/04/01 09:44:32;;;;;;;36.33;7.35;;;;;;;17.78;49.88;152120.34;1771419;79;21135;-62
2022/04/01 09:47:03;;;;;;;48.48;7.12;;;;;;;17.74;50.10;152112.53;1771264;80;21413;-61
2022/04/01 09:49:39;;;;;;;41.90;8.18;;;;;;;17.74;50.15;152112.53;1769894;81;21080;-61
2022/04/01 09:52:09;;;;;;;42.13;8.03;;;;;;;17.69;49.84;152098.22;1767310;79;21495;-61
2022/04/01 09:54:47;;;;;;;53.45;7.95;;;;;;;17.58;49.94;152070.83;1767042;80;21176;-61
2022/04/01 09:57:16;;;;;;;59.20;8.08;;;;;;;17.49;50.01;152048.66;1762130;81;20917;-61
2022/04/01 09:59:49;;;;;;;37.20;7.17;;;;;;;17.42;50.31;152031.70;1775280;80;21351;-62
2022/04/01 10:02:16;;;;;;;40.17;7.42;;;;;;;17.41;50.19;152029.09;1792570;79;21028;-62
2022/04/01 10:04:45;;;;;;;48.63;7.72;;;;;;;17.37;50.26;152018.67;1793607;79;20838;-62
2022/04/01 10:07:14;;;;;;;53.45;8.00;;;;;;;17.33;50.39;152008.20;1793195;80;21161;-61
2022/04/01 10:09:43;;;;;;;45.03;8.18;;;;;;;17.31;50.35;152003.00;1790923;80;20916;-61
2022/04/01 10:12:13;;;;;;;45.30;8.30;;;;;;;17.28;50.61;151995.17;1789130;80;21028;-62
2022/04/01 10:14:40;;;;;;;49.23;9.10;;;;;;;17.29;50.72;151997.78;1773304;80;20988;-62
2022/04/01 10:17:12;;;;;;;37.17;7.40;;;;;;;17.29;50.76;151997.78;1791882;78;21499;-61
2022/04/01 10:19:42;;;;;;;46.75;8.18;;;;;;;17.29;50.81;151997.78;1779315;79;20917;-61
2022/04/01 10:22:15;;;;;;;47.78;7.67;;;;;;;17.28;50.95;151996.50;1782216;78;21056;-61
2022/04/01 10:25:08;;;;;;;42.30;8.20;;;;;;;17.30;51.04;152000.39;1791466;78;21003;-59
2022/04/01 10:27:40;;;;;;;35.10;7.08;;;;;;;17.31;50.83;152003.00;1761995;80;21442;-60
2022/04/01 10:30:11;;;;;;;49.67;8.43;;;;;;;17.29;51.18;151997.78;1743462;81;21090;-61
2022/04/01 10:32:44;;;;;;;45.05;8.08;;;;;;;17.34;51.05;152010.81;1762408;81;21900;-61
2022/04/01 10:35:29;;;;;;;39.33;7.80;;;;;;;17.36;50.86;152016.06;1761850;81;21043;-60
2022/04/01 10:38:11;;;;;;;42.50;8.77;;;;;;;17.40;50.71;152025.16;1762027;81;21242;-61
2022/04/01 10:40:42;;;;;;;43.00;7.70;;;;;;;17.41;50.82;152029.09;1762126;80;21014;-59
2022/04/01 10:43:28;;;;;;;43.15;8.65;;;;;;;17.43;50.41;152034.31;1762020;81;21040;-59
2022/04/01 10:46:03;;;;;;;35.52;8.55;;;;;;;17.37;50.04;152018.67;1777067;80;21962;-62
2022/04/01 10:51:37;;;;;;;41.92;7.22;;;;;;;17.16;49.98;151966.52;1792818;79;21048;-62
2022/04/01 10:54:18;;;;;;;44.98;7.37;;;;;;;17.09;50.29;151946.97;1786037;79;21378;-62
2022/04/01 10:57:00;;;;;;;46.85;8.03;;;;;;;17.03;50.44;151932.61;1791472;78;20945;-61
2022/04/01 10:59:28;;;;;;;43.60;8.20;;;;;;;16.98;50.42;151919.53;1793445;80;21193;-61
2022/04/01 11:02:04;;;;;;;38.30;9.10;;;;;;;16.88;50.57;151896.05;1792888;80;21000;-60
2022/04/01 11:04:35;;;;;;;47.48;7.87;;;;;;;16.86;50.76;151890.84;1793133;80;21036;-61
2022/04/01 11:07:06;;;;;;;43.13;9.28;;;;;;;16.85;50.80;151888.23;1762315;80;20932;-61
2022/04/01 11:09:42;;;;;;;36.75;9.10;;;;;;;16.85;50.83;151888.23;1793268;80;21016;-60
2022/04/01 11:12:25;;;;;;;44.53;8.75;;;;;;;16.84;50.83;151885.62;1792999;80;21512;-60
2022/04/01 11:17:41;;;;;;;35.92;8.13;;;;;;;16.75;50.82;151863.47;1793961;79;21414;-60
2022/04/01 11:20:26;;;;;;;40.33;8.33;;;;;;;16.71;50.84;151851.77;1793784;80;20929;-60
2022/04/01 11:23:03;;;;;;;42.85;7.78;;;;;;;16.67;50.93;151841.31;1793265;79;21433;-64
2022/04/01 11:25:36;;;;;;;47.35;8.88;;;;;;;16.64;50.93;151834.81;1793694;80;21009;-60
2022/04/01 11:28:10;;;;;;;46.23;8.55;;;;;;;16.57;50.87;151817.88;1793905;80;21023;-60
2022/04/01 11:30:55;;;;;;;42.25;8.28;;;;;;;16.51;51.04;151802.25;1793795;78;21324;-60
2022/04/01 11:33:22;;;;;;;36.50;6.97;;;;;;;16.47;51.08;151791.83;1794920;78;20976;-59
2022/04/01 11:35:53;;;;;;;48.33;9.25;;;;;;;16.43;51.17;151781.38;1808839;78;21020;-59
2022/04/01 11:38:25;;;;;;;40.03;7.40;;;;;;;16.40;51.06;151773.55;1794200;79;20991;-60
2022/04/01 11:40:55;;;;;;;35.50;7.67;;;;;;;16.32;51.06;151755.33;1793101;78;20972;-60
2022/04/01 11:43:24;;;;;;;40.35;8.13;;;;;;;16.24;51.14;151734.45;1793564;80;20952;-61
2022/04/01 11:45:57;;;;;;;42.58;7.85;;;;;;;16.17;51.10;151716.22;1793301;80;20992;-60
2022/04/01 11:48:36;;;;;;;37.40;7.50;;;;;;;16.01;51.15;151677.13;1793984;80;20991;-60
2022/04/01 11:51:19;;;;;;;39.88;7.97;;;;;;;15.83;51.60;151630.23;1792997;80;21209;-60
2022/04/01 11:53:52;;;;;;;46.40;8.33;;;;;;;15.65;52.10;151584.62;1791978;80;20842;-60